Time;durP1;ratioP1;P1;durP2;ratioP2;P2;SDS_P1;SDS_P2;PMS_P1;PMS_P2;Temp;Humidity;BMP_temperature;BMP_pressure;BME280_temperature;BME280_humidity;BME280_pressure;Samples;Min_cycle;Max_cycle;Signal;HPM_P1;HPM_P2
2024/03/20 00:00:33;;;;;;;1.43;1.00;;;;;;;-0.88;68.88;102107.06;5023336;28;20450;-74
2024/03/20 00:03:00;;;;;;;1.60;1.10;;;;;;;-0.86;68.73;102105.47;5026303;28;20447;-74
2024/03/20 00:05:27;;;;;;;2.67;1.10;;;;;;;-0.87;68.34;102095.97;5026611;28;20990;-74
2024/03/20 00:07:56;;;;;;;1.40;1.10;;;;;;;-0.87;68.84;102095.97;5024143;28;20452;-74
2024/03/20 00:10:23;;;;;;;1.47;1.30;;;;;;;-0.85;68.77;102096.06;5025594;28;20454;-74
2024/03/20 00:12:51;;;;;;;2.23;1.03;;;;;;;-0.84;68.90;102087.53;5026702;28;20434;-74
2024/03/20 00:15:17;;;;;;;1.07;1.00;;;;;;;-0.84;68.74;102092.66;5024384;28;20466;-69
2024/03/20 00:17:47;;;;;;;1.80;1.00;;;;;;;-0.84;68.06;102074.66;5025360;28;20993;-69
2024/03/20 00:20:14;;;;;;;2.33;1.40;;;;;;;-0.85;68.67;102081.50;5026937;28;20454;-70
2024/03/20 00:22:41;;;;;;;1.87;1.00;;;;;;;-0.84;68.28;102072.97;5026845;28;20940;-69
2024/03/20 00:25:10;;;;;;;1.20;1.10;;;;;;;-0.84;68.31;102072.97;5025331;28;20449;-69
2024/03/20 00:27:37;;;;;;;2.13;1.40;;;;;;;-0.84;69.01;102070.41;5023769;28;20444;-69
2024/03/20 00:30:05;;;;;;;1.30;1.00;;;;;;;-0.85;68.57;102060.94;5026262;28;21036;-69
2024/03/20 00:32:32;;;;;;;2.37;1.20;;;;;;;-0.84;68.04;102067.84;5025502;28;20921;-69
2024/03/20 00:34:59;;;;;;;1.00;0.70;;;;;;;-0.84;68.53;102066.97;5023600;28;20451;-69
2024/03/20 00:37:25;;;;;;;3.07;1.30;;;;;;;-0.85;68.83;102068.66;5026409;28;20445;-69
2024/03/20 00:39:52;;;;;;;1.10;1.03;;;;;;;-0.84;68.54;102070.41;5025043;28;20474;-69
2024/03/20 00:42:22;;;;;;;1.00;1.00;;;;;;;-0.85;68.76;102060.94;5023793;28;20440;-69
2024/03/20 00:44:48;;;;;;;1.43;1.10;;;;;;;-0.85;68.38;102060.94;5024028;28;20448;-69
2024/03/20 00:47:18;;;;;;;1.20;1.07;;;;;;;-0.86;69.07;102059.22;5024704;28;20854;-69
2024/03/20 00:49:45;;;;;;;2.70;1.30;;;;;;;-0.85;68.78;102060.06;5026172;28;20461;-69
2024/03/20 00:52:12;;;;;;;1.10;0.90;;;;;;;-0.88;68.81;102053.13;5023947;28;20454;-70
2024/03/20 00:54:39;;;;;;;1.07;0.97;;;;;;;-0.87;68.28;102059.13;5024325;28;20991;-69
2024/03/20 00:57:06;;;;;;;2.93;1.10;;;;;;;-0.89;68.37;102048.75;5026173;28;20504;-69
2024/03/20 00:59:34;;;;;;;1.13;1.00;;;;;;;-0.88;68.82;102049.66;5023757;28;20912;-69
2024/03/20 01:02:01;;;;;;;2.20;0.90;;;;;;;-0.90;68.98;102041.88;5024318;28;20566;-70
2024/03/20 01:04:28;;;;;;;2.83;1.00;;;;;;;-0.89;68.54;102042.75;5024067;28;20451;-69
2024/03/20 01:06:55;;;;;;;1.20;1.10;;;;;;;-0.90;68.74;102036.75;5025639;28;20478;-69
2024/03/20 01:09:22;;;;;;;3.93;1.17;;;;;;;-0.90;68.16;102035.88;5024763;28;20535;-69
2024/03/20 01:11:49;;;;;;;1.30;1.20;;;;;;;-0.92;69.03;102030.66;5022112;28;20522;-69
2024/03/20 01:14:16;;;;;;;1.20;1.10;;;;;;;-0.91;68.71;102036.69;5023012;28;20937;-69
2024/03/20 01:16:44;;;;;;;1.40;1.03;;;;;;;-0.92;68.60;102035.78;5024364;28;20958;-69
2024/03/20 01:19:11;;;;;;;2.53;1.10;;;;;;;-0.94;69.12;102031.38;5025826;28;20521;-69
2024/03/20 01:21:38;;;;;;;3.60;2.20;;;;;;;-0.94;68.86;102029.72;5023038;28;20446;-69
2024/03/20 01:24:06;;;;;;;1.50;1.20;;;;;;;-0.96;68.98;102023.63;5024390;28;20506;-69
2024/03/20 01:26:33;;;;;;;1.23;1.10;;;;;;;-0.97;68.48;102020.97;5025343;28;20486;-69
2024/03/20 01:29:00;;;;;;;3.07;1.23;;;;;;;-0.97;69.02;102028.69;5025879;28;20482;-69
2024/03/20 01:31:27;;;;;;;2.47;1.00;;;;;;;-0.98;68.87;102029.50;5023818;28;21003;-69
2024/03/20 01:33:55;;;;;;;1.17;0.93;;;;;;;-0.99;68.63;102025.19;5020036;28;20448;-69
2024/03/20 01:36:22;;;;;;;1.10;1.00;;;;;;;-1.02;68.53;102015.66;5025476;28;20453;-69
2024/03/20 01:38:49;;;;;;;0.83;0.83;;;;;;;-1.03;68.17;102013.88;5023826;28;20447;-70
2024/03/20 01:41:16;;;;;;;1.90;1.30;;;;;;;-1.05;68.45;102011.25;5022839;28;20526;-69
2024/03/20 01:43:52;;;;;;;2.40;1.40;;;;;;;-1.07;68.70;102014.56;5025186;28;20455;-69
2024/03/20 01:46:29;;;;;;;2.20;1.00;;;;;;;-1.07;68.28;102014.56;5024767;28;20478;-70
2024/03/20 01:48:58;;;;;;;1.90;1.20;;;;;;;-1.08;68.85;102012.81;5023536;28;20436;-69
2024/03/20 01:51:27;;;;;;;1.90;1.00;;;;;;;-1.10;68.01;102007.59;5022412;28;20446;-69
2024/03/20 01:53:55;;;;;;;2.30;1.10;;;;;;;-1.11;68.56;102007.53;5022508;28;20892;-69
2024/03/20 01:56:22;;;;;;;1.80;1.20;;;;;;;-1.12;68.83;102005.75;5023668;28;20804;-73
2024/03/20 01:58:49;;;;;;;1.13;0.97;;;;;;;-1.15;68.86;101996.22;5025013;28;20454;-74
2024/03/20 02:01:16;;;;;;;1.30;1.00;;;;;;;-1.16;68.12;102001.31;5022599;28;20455;-74
2024/03/20 02:03:43;;;;;;;0.87;0.83;;;;;;;-1.18;68.00;101998.66;5023336;28;20438;-74
2024/03/20 02:06:21;;;;;;;1.50;1.10;;;;;;;-1.20;68.78;102002.84;5024719;28;20486;-74
2024/03/20 02:08:48;;;;;;;7.30;1.00;;;;;;;-1.21;68.85;102000.22;5023616;28;20497;-73
2024/03/20 02:11:15;;;;;;;1.07;0.90;;;;;;;-1.24;68.21;101994.13;5021799;28;20447;-73
2024/03/20 02:13:45;;;;;;;1.17;1.07;;;;;;;-1.26;68.45;101993.22;5024510;28;20857;-72
2024/03/20 02:16:12;;;;;;;1.87;1.30;;;;;;;-1.27;68.93;101988.00;5023711;28;21005;-74
2024/03/20 02:18:38;;;;;;;1.50;1.00;;;;;;;-1.29;68.46;101990.47;5021647;28;20953;-73
2024/03/20 02:21:09;;;;;;;1.23;1.10;;;;;;;-1.31;68.55;101986.97;5024338;28;20447;-73
2024/03/20 02:23:36;;;;;;;0.90;0.90;;;;;;;-1.33;68.83;101980.88;5023814;28;20810;-73
2024/03/20 02:26:04;;;;;;;1.20;1.10;;;;;;;-1.34;68.90;101986.84;5021559;28;20501;-73
2024/03/20 02:28:31;;;;;;;0.97;0.87;;;;;;;-1.36;68.33;101988.44;5023645;28;20470;-73
2024/03/20 02:30:59;;;;;;;2.20;1.20;;;;;;;-1.37;68.34;101990.94;5021478;28;20491;-73
2024/03/20 02:33:26;;;;;;;2.50;1.00;;;;;;;-1.39;68.35;101980.63;5024621;28;20453;-74
2024/03/20 02:35:53;;;;;;;1.13;1.00;;;;;;;-1.40;69.06;101978.84;5022396;28;20451;-69
2024/03/20 02:38:21;;;;;;;2.27;1.10;;;;;;;-1.41;68.83;101981.34;5022398;28;20452;-69
2024/03/20 02:40:49;;;;;;;1.10;1.00;;;;;;;-1.43;68.56;101983.84;5024251;28;20443;-69
2024/03/20 02:43:16;;;;;;;1.13;0.90;;;;;;;-1.43;68.52;101985.53;5023988;28;20510;-69
2024/03/20 02:45:43;;;;;;;1.77;1.30;;;;;;;-1.45;69.02;101980.34;5023355;28;20465;-69
2024/03/20 02:48:10;;;;;;;1.30;1.20;;;;;;;-1.45;68.92;101975.19;5020815;28;20439;-69
2024/03/20 02:50:37;;;;;;;1.67;1.50;;;;;;;-1.48;68.55;101965.66;5022132;28;20448;-69
2024/03/20 02:53:04;;;;;;;1.33;1.20;;;;;;;-1.47;68.61;101972.56;5022238;28;20952;-69
2024/03/20 02:55:33;;;;;;;2.27;1.17;;;;;;;-1.47;69.51;101975.13;5023865;28;20442;-69
2024/03/20 02:58:01;;;;;;;1.30;1.13;;;;;;;-1.47;68.84;101974.25;5022144;28;20939;-69
2024/03/20 03:00:29;;;;;;;3.20;1.33;;;;;;;-1.48;69.24;101967.38;5021952;28;21018;-69
2024/03/20 03:02:56;;;;;;;1.47;1.27;;;;;;;-1.51;68.76;101956.97;5024056;28;20439;-69
2024/03/20 03:05:23;;;;;;;2.97;1.33;;;;;;;-1.49;69.21;101974.16;5021996;28;20805;-69
2024/03/20 03:07:50;;;;;;;2.10;1.90;;;;;;;-1.48;69.18;101965.66;5021836;28;20494;-69
2024/03/20 03:10:17;;;;;;;1.60;1.50;;;;;;;-1.48;69.14;101964.81;5023993;28;20482;-69
2024/03/20 03:12:46;;;;;;;1.77;1.43;;;;;;;-1.47;69.42;101962.28;5021920;28;20451;-69
2024/03/20 03:15:13;;;;;;;1.87;1.30;;;;;;;-1.47;69.20;101953.72;5021592;28;20448;-69
2024/03/20 03:17:41;;;;;;;2.53;1.23;;;;;;;-1.47;69.04;101961.41;5023883;28;20462;-69
2024/03/20 03:20:13;;;;;;;2.73;1.33;;;;;;;-1.48;69.34;101947.69;5022183;28;20448;-69
2024/03/20 03:22:41;;;;;;;1.70;1.30;;;;;;;-1.48;69.16;101949.41;5021062;28;20449;-69
2024/03/20 03:25:09;;;;;;;1.67;1.03;;;;;;;-1.51;69.52;101952.69;5023424;28;20516;-69
2024/03/20 03:27:36;;;;;;;1.63;1.20;;;;;;;-1.49;69.30;101951.06;5022556;28;21022;-69
2024/03/20 03:30:07;;;;;;;2.93;1.43;;;;;;;-1.49;68.60;101945.06;5020989;28;20475;-69
2024/03/20 03:32:34;;;;;;;1.50;1.40;;;;;;;-1.50;69.00;101949.31;5021454;28;20440;-69
2024/03/20 03:35:01;;;;;;;3.63;1.67;;;;;;;-1.50;69.73;101945.88;5024924;28;20439;-69
2024/03/20 03:37:28;;;;;;;2.13;1.43;;;;;;;-1.49;68.80;101942.50;5024906;28;20562;-69
2024/03/20 03:39:55;;;;;;;2.50;1.63;;;;;;;-1.49;69.32;101948.50;5026529;28;20944;-69
2024/03/20 03:42:22;;;;;;;3.20;2.30;;;;;;;-1.49;69.07;101940.78;5026891;28;20447;-69
2024/03/20 03:44:49;;;;;;;3.53;1.77;;;;;;;-1.47;69.18;101943.44;5024689;28;20435;-73
2024/03/20 03:47:17;;;;;;;2.50;1.90;;;;;;;-1.48;69.84;101942.56;5026794;28;20473;-74
2024/03/20 03:49:44;;;;;;;3.70;2.30;;;;;;;-1.46;69.96;101934.91;5026643;28;20439;-73
2024/03/20 03:52:11;;;;;;;3.37;2.10;;;;;;;-1.46;69.30;101927.22;5024469;28;20436;-73
2024/03/20 03:54:38;;;;;;;2.97;2.17;;;;;;;-1.45;69.73;101934.13;5026579;28;20973;-73
2024/03/20 03:57:05;;;;;;;2.33;1.97;;;;;;;-1.43;69.84;101940.19;5026194;28;20450;-73
2024/03/20 03:59:32;;;;;;;2.83;1.90;;;;;;;-1.42;70.07;101936.84;5024477;28;20450;-74
2024/03/20 04:01:59;;;;;;;4.07;1.97;;;;;;;-1.40;70.29;101940.31;5026810;28;20458;-74
2024/03/20 04:04:28;;;;;;;3.87;2.20;;;;;;;-1.38;70.34;101932.72;5025916;28;20443;-73
2024/03/20 04:06:55;;;;;;;4.03;2.33;;;;;;;-1.37;70.12;101935.34;5024055;28;20931;-73
2024/03/20 04:09:22;;;;;;;4.10;2.63;;;;;;;-1.36;70.12;101931.09;5026422;28;20442;-73
2024/03/20 04:11:49;;;;;;;3.27;2.37;;;;;;;-1.35;70.38;101931.16;5026003;28;20444;-73
2024/03/20 04:14:16;;;;;;;5.50;2.70;;;;;;;-1.33;70.65;101937.25;5024018;28;20866;-73
2024/03/20 04:16:43;;;;;;;3.90;2.77;;;;;;;-1.31;70.42;101934.75;5024542;28;20458;-74
2024/03/20 04:19:10;;;;;;;3.47;2.30;;;;;;;-1.30;70.59;101932.25;5025429;28;20846;-73
2024/03/20 04:21:39;;;;;;;6.50;2.60;;;;;;;-1.28;70.51;101935.75;5026885;28;20447;-73
2024/03/20 04:24:07;;;;;;;2.97;2.23;;;;;;;-1.27;70.54;101921.22;5024502;28;20451;-69
2024/03/20 04:26:34;;;;;;;5.70;2.60;;;;;;;-1.24;70.59;101931.63;5024857;28;20565;-69
2024/03/20 04:29:01;;;;;;;3.73;2.40;;;;;;;-1.23;71.06;101929.16;5026787;28;20443;-69
2024/03/20 04:31:28;;;;;;;3.53;2.43;;;;;;;-1.21;71.52;101926.63;5024121;28;20475;-70
2024/03/20 04:33:55;;;;;;;4.90;2.50;;;;;;;-1.17;71.50;101919.94;5024823;28;20453;-69
2024/03/20 04:36:22;;;;;;;5.37;2.43;;;;;;;-1.15;70.98;101926.03;5026436;28;20813;-69
2024/03/20 04:38:50;;;;;;;5.50;2.40;;;;;;;-1.13;71.19;101919.25;5024050;28;20527;-69
2024/03/20 04:41:22;;;;;;;4.17;2.03;;;;;;;-1.10;71.40;101921.97;5024613;28;20446;-70
2024/03/20 04:43:49;;;;;;;3.10;2.33;;;;;;;-1.08;71.32;101918.66;5026463;28;20442;-69
2024/03/20 04:46:14;;;;;;;3.73;2.50;;;;;;;-1.06;71.20;101918.69;5024221;28;20444;-69
2024/03/20 04:48:41;;;;;;;4.90;2.00;;;;;;;-1.04;71.93;101909.38;5024331;28;20506;-69
2024/03/20 04:51:08;;;;;;;2.63;2.20;;;;;;;-1.01;71.73;101909.50;5026264;28;20206;-69
2024/03/20 04:53:35;;;;;;;4.30;2.43;;;;;;;-0.99;71.94;101905.31;5023947;28;20807;-69
2024/03/20 04:56:04;;;;;;;4.83;2.30;;;;;;;-0.96;71.84;101902.00;5024463;28;21005;-69
2024/03/20 04:58:31;;;;;;;2.50;2.17;;;;;;;-0.94;71.17;101906.41;5026047;28;20457;-69
2024/03/20 05:00:58;;;;;;;4.13;2.20;;;;;;;-0.91;72.12;101901.41;5024075;28;20931;-69
2024/03/20 05:03:25;;;;;;;4.47;2.43;;;;;;;-0.88;71.09;101905.78;5024380;28;20443;-70
2024/03/20 05:05:52;;;;;;;3.33;2.03;;;;;;;-0.85;71.20;101901.66;5025981;28;20446;-73
2024/03/20 05:08:18;;;;;;;5.03;2.30;;;;;;;-0.82;72.26;101900.91;5023501;28;20483;-73
2024/03/20 05:10:45;;;;;;;4.00;2.10;;;;;;;-0.80;71.99;101901.84;5024330;28;20439;-74
2024/03/20 05:13:14;;;;;;;2.10;1.90;;;;;;;-0.77;71.92;101896.84;5025964;28;20431;-74
2024/03/20 05:15:41;;;;;;;4.87;2.50;;;;;;;-0.73;72.27;101897.84;5023396;28;20451;-73
2024/03/20 05:18:08;;;;;;;4.43;1.97;;;;;;;-0.69;72.60;101898.00;5024231;28;20435;-73
2024/03/20 05:20:35;;;;;;;3.93;2.40;;;;;;;-0.67;72.85;101898.09;5025776;28;20526;-73
2024/03/20 05:23:01;;;;;;;5.30;1.97;;;;;;;-0.65;72.18;101899.03;5025712;28;20445;-74
2024/03/20 05:25:28;;;;;;;3.43;2.00;;;;;;;-0.62;72.28;101888.88;5024167;28;20460;-73
2024/03/20 05:27:54;;;;;;;4.33;2.20;;;;;;;-0.58;72.55;101891.63;5022946;28;20224;-73
2024/03/20 05:30:22;;;;;;;5.20;2.43;;;;;;;-0.55;72.74;101893.44;5025431;28;20857;-74
2024/03/20 05:32:49;;;;;;;2.57;2.20;;;;;;;-0.52;72.84;101896.13;5021567;28;20451;-73
2024/03/20 05:35:14;;;;;;;3.73;2.13;;;;;;;-0.48;72.60;101887.75;5024908;28;20443;-69
2024/03/20 05:37:41;;;;;;;2.17;1.97;;;;;;;-0.44;72.90;101891.31;5022583;28;20436;-69
2024/03/20 05:40:09;;;;;;;3.40;2.23;;;;;;;-0.41;72.66;101892.31;5022653;28;20211;-69
2024/03/20 05:42:36;;;;;;;2.23;2.00;;;;;;;-0.38;72.25;101892.41;5023300;28;20467;-69
2024/03/20 05:45:02;;;;;;;3.53;2.20;;;;;;;-0.35;72.15;101892.56;5025085;28;20555;-69
2024/03/20 05:47:31;;;;;;;5.53;2.30;;;;;;;-0.33;72.64;101892.63;5022956;28;20534;-69
2024/03/20 05:49:57;;;;;;;4.97;2.60;;;;;;;-0.27;72.57;101897.13;5023272;28;20443;-69
2024/03/20 05:52:24;;;;;;;4.53;2.40;;;;;;;-0.26;72.47;101892.06;5025057;28;20819;-69
2024/03/20 05:54:51;;;;;;;2.70;2.10;;;;;;;-0.23;72.18;101886.13;5022855;28;20436;-69
2024/03/20 05:57:18;;;;;;;2.67;2.13;;;;;;;-0.21;72.92;101889.66;5022661;28;20459;-69
2024/03/20 05:59:44;;;;;;;3.60;2.27;;;;;;;-0.16;72.65;101895.84;5024972;28;20814;-69
2024/03/20 06:02:11;;;;;;;2.87;2.03;;;;;;;-0.15;72.76;101893.34;5022377;28;20451;-69
2024/03/20 06:04:38;;;;;;;3.20;2.10;;;;;;;-0.10;72.78;101891.81;5023533;28;20196;-69
2024/03/20 06:07:06;;;;;;;6.00;2.40;;;;;;;-0.08;72.47;101894.47;5024673;28;20529;-69
2024/03/20 06:09:32;;;;;;;5.27;2.70;;;;;;;-0.06;72.69;101892.84;5022143;28;20528;-69
2024/03/20 06:11:59;;;;;;;4.17;2.30;;;;;;;-0.03;72.93;101882.66;5023513;28;20490;-69
2024/03/20 06:14:25;;;;;;;2.37;2.13;;;;;;;0.01;73.16;101879.38;5024376;28;20441;-74
2024/03/20 06:16:52;;;;;;;4.83;2.30;;;;;;;0.04;73.04;101884.63;5022108;28;20956;-74
2024/03/20 06:19:18;;;;;;;3.23;2.33;;;;;;;0.08;72.54;101890.75;5023764;28;20445;-74
2024/03/20 06:21:46;;;;;;;5.53;3.20;;;;;;;0.11;73.12;101886.63;5023957;28;20447;-74
2024/03/20 06:24:12;;;;;;;5.60;2.67;;;;;;;0.13;72.84;101881.53;5021894;28;20213;-74
2024/03/20 06:26:39;;;;;;;6.60;2.77;;;;;;;0.17;72.91;101883.41;5023930;28;20825;-74
2024/03/20 06:29:07;;;;;;;4.90;2.70;;;;;;;0.20;72.83;101882.66;5023414;28;20700;-74
2024/03/20 06:31:35;;;;;;;5.53;3.13;;;;;;;0.23;72.54;101878.50;5021566;28;20445;-74
2024/03/20 06:34:02;;;;;;;4.33;3.00;;;;;;;0.27;72.76;101876.91;5024304;28;20798;-74
2024/03/20 06:36:28;;;;;;;4.70;3.27;;;;;;;0.29;73.20;101886.44;5023591;28;20457;-74
2024/03/20 06:38:56;;;;;;;3.80;2.90;;;;;;;0.33;72.85;101887.41;5021486;28;20447;-74
2024/03/20 06:41:22;;;;;;;4.67;2.73;;;;;;;0.36;73.10;101882.38;5024112;28;20204;-74
2024/03/20 06:43:52;;;;;;;5.27;2.93;;;;;;;0.40;73.37;101888.53;5023200;28;20444;-74
2024/03/20 06:46:19;;;;;;;5.17;3.33;;;;;;;0.43;72.68;101886.94;5021519;28;20952;-69
2024/03/20 06:48:47;;;;;;;4.10;2.87;;;;;;;0.46;72.53;101881.91;5023559;28;20474;-69
2024/03/20 06:51:15;;;;;;;4.87;2.97;;;;;;;0.50;72.71;101881.19;5023629;28;20530;-69
2024/03/20 06:53:42;;;;;;;4.60;2.70;;;;;;;0.52;73.24;101884.69;5020861;28;20478;-69
2024/03/20 06:56:11;;;;;;;4.67;2.90;;;;;;;0.55;72.70;101884.81;5022102;28;20531;-71
2024/03/20 06:58:38;;;;;;;4.13;2.47;;;;;;;0.58;73.16;101890.06;5022065;28;20451;-68
2024/03/20 07:01:03;;;;;;;3.53;2.63;;;;;;;0.62;72.72;101891.06;5024119;28;20461;-68
2024/03/20 07:03:30;;;;;;;3.73;2.40;;;;;;;0.65;72.57;101891.19;5022086;28;20543;-69
2024/03/20 07:05:56;;;;;;;4.13;2.63;;;;;;;0.69;72.93;101879.28;5022205;28;20205;-68
2024/03/20 07:08:24;;;;;;;3.90;2.97;;;;;;;0.71;73.29;101885.38;5024765;28;20474;-68
2024/03/20 07:10:51;;;;;;;6.23;3.23;;;;;;;0.74;72.97;101875.19;5026084;28;20227;-68
2024/03/20 07:13:19;;;;;;;4.77;2.70;;;;;;;0.77;73.21;101883.88;5026519;28;20451;-68
2024/03/20 07:15:46;;;;;;;3.90;2.63;;;;;;;0.80;73.24;101889.16;5028304;28;20816;-68
2024/03/20 07:18:13;;;;;;;4.53;2.67;;;;;;;0.84;72.67;101892.69;5025592;28;20459;-69
2024/03/20 07:20:38;;;;;;;4.80;3.00;;;;;;;0.87;73.33;101887.66;5026649;28;20502;-68
2024/03/20 07:23:05;;;;;;;5.23;3.23;;;;;;;0.90;73.39;101887.75;5027719;28;20450;-68
2024/03/20 07:25:32;;;;;;;8.07;5.73;;;;;;;0.92;73.16;101888.69;5028104;28;20210;-68
2024/03/20 07:27:59;;;;;;;4.50;3.83;;;;;;;0.94;72.96;101884.47;5026217;28;20487;-68
2024/03/20 07:30:26;;;;;;;4.30;3.13;;;;;;;0.97;73.29;101886.28;5025329;28;20470;-68
2024/03/20 07:32:53;;;;;;;4.73;3.10;;;;;;;1.01;72.95;101875.25;5024582;28;20961;-68
2024/03/20 07:35:22;;;;;;;3.60;2.70;;;;;;;1.03;73.05;101883.91;5026750;28;20450;-68
2024/03/20 07:37:50;;;;;;;4.43;3.13;;;;;;;1.06;73.23;101873.72;5027464;28;20455;-68
2024/03/20 07:40:16;;;;;;;6.00;3.30;;;;;;;1.10;73.38;101882.41;5027695;28;20447;-68
2024/03/20 07:42:44;;;;;;;4.70;3.20;;;;;;;1.12;73.55;101881.63;5025973;28;20442;-68
2024/03/20 07:45:10;;;;;;;6.87;3.57;;;;;;;1.15;72.98;101888.59;5025285;28;20503;-68
2024/03/20 07:47:38;;;;;;;5.77;3.60;;;;;;;1.17;73.14;101893.00;5027453;28;20848;-68
2024/03/20 07:50:06;;;;;;;4.20;2.80;;;;;;;1.20;73.29;101890.50;5025996;28;20209;-68
2024/03/20 07:52:33;;;;;;;4.83;3.23;;;;;;;1.21;73.72;101879.38;5024958;28;20452;-68
2024/03/20 07:55:00;;;;;;;9.23;4.97;;;;;;;1.23;73.58;101882.00;5027673;28;20807;-75
2024/03/20 07:57:27;;;;;;;4.53;3.43;;;;;;;1.25;73.29;101881.25;5025501;28;20458;-75
2024/03/20 07:59:53;;;;;;;5.13;3.77;;;;;;;1.28;73.33;101885.63;5025005;28;21006;-75
2024/03/20 08:02:20;;;;;;;5.17;3.20;;;;;;;1.30;73.05;101883.94;5027260;28;20514;-75
2024/03/20 08:04:48;;;;;;;6.40;2.97;;;;;;;1.33;73.19;101884.03;5025049;28;20204;-75
2024/03/20 08:07:15;;;;;;;8.77;5.10;;;;;;;1.34;72.72;101880.66;5025164;28;20480;-75
2024/03/20 08:09:40;;;;;;;5.93;3.50;;;;;;;1.35;73.31;101879.81;5027061;28;20478;-75
2024/03/20 08:12:08;;;;;;;5.17;3.33;;;;;;;1.37;73.02;101879.88;5024838;28;20462;-75
2024/03/20 08:14:33;;;;;;;3.93;2.60;;;;;;;1.40;73.22;101880.00;5025349;28;20250;-75
2024/03/20 08:17:00;;;;;;;4.07;2.70;;;;;;;1.42;73.30;101875.72;5026929;28;20444;-75
2024/03/20 08:19:27;;;;;;;2.93;2.03;;;;;;;1.43;73.03;101880.09;5026949;28;20320;-75
2024/03/20 08:21:55;;;;;;;2.83;2.17;;;;;;;1.45;73.07;101881.91;5025066;28;20795;-75
2024/03/20 08:24:21;;;;;;;3.03;1.93;;;;;;;1.46;73.13;101870.75;5024306;28;20933;-75
2024/03/20 08:26:48;;;;;;;2.90;2.10;;;;;;;1.49;72.66;101875.13;5026787;28;20459;-75
2024/03/20 08:29:14;;;;;;;4.77;2.23;;;;;;;1.51;73.23;101877.75;5024850;28;20480;-75
2024/03/20 08:31:41;;;;;;;3.20;2.57;;;;;;;1.52;73.63;101871.75;5024614;28;20454;-75
2024/03/20 08:34:07;;;;;;;3.13;2.30;;;;;;;1.54;73.37;101875.28;5026808;28;20205;-80
2024/03/20 08:36:34;;;;;;;3.20;2.53;;;;;;;1.56;73.11;101871.03;5024689;28;20449;-73
2024/03/20 08:39:01;;;;;;;5.17;2.43;;;;;;;1.57;73.23;101868.50;5024856;28;20212;-73
2024/03/20 08:41:28;;;;;;;3.87;2.17;;;;;;;1.59;73.10;101865.97;5026580;28;20448;-72
2024/03/20 08:43:54;;;;;;;3.10;2.47;;;;;;;1.60;73.40;101871.19;5024104;28;20445;-73
2024/03/20 08:46:20;;;;;;;3.07;1.97;;;;;;;1.62;73.04;101866.09;5024956;28;20442;-73
2024/03/20 08:48:46;;;;;;;3.10;2.00;;;;;;;1.63;73.45;101863.53;5026286;28;20234;-73
2024/03/20 08:51:13;;;;;;;3.03;1.93;;;;;;;1.66;73.20;101857.59;5023413;28;20460;-72
2024/03/20 08:53:39;;;;;;;4.27;1.90;;;;;;;1.67;73.43;101864.50;5025085;28;20197;-73
2024/03/20 08:56:07;;;;;;;3.43;2.00;;;;;;;1.68;73.64;101858.53;5025556;28;20530;-72
2024/03/20 08:58:33;;;;;;;3.10;1.80;;;;;;;1.71;73.46;101858.63;5023463;28;20207;-72
2024/03/20 09:01:00;;;;;;;4.53;2.10;;;;;;;1.72;73.38;101862.94;5025302;28;20887;-72
2024/03/20 09:03:27;;;;;;;3.93;2.80;;;;;;;1.74;73.70;101853.56;5025330;28;20208;-72
2024/03/20 09:05:53;;;;;;;1.40;1.30;;;;;;;1.75;73.23;101847.56;5023180;28;20954;-73
2024/03/20 09:08:20;;;;;;;2.67;1.77;;;;;;;1.76;72.98;101849.34;5025449;28;20496;-73
2024/03/20 09:10:47;;;;;;;4.37;2.53;;;;;;;1.78;73.29;101847.66;5025021;28;20451;-72
2024/03/20 09:13:15;;;;;;;2.73;1.50;;;;;;;1.79;73.16;101844.25;5023169;28;20547;-72
2024/03/20 09:15:41;;;;;;;2.50;1.80;;;;;;;1.80;73.05;101843.41;5025653;28;20449;-73
2024/03/20 09:18:07;;;;;;;3.30;2.40;;;;;;;1.82;73.40;101843.47;5024565;28;20444;-73
2024/03/20 09:20:40;;;;;;;3.83;2.00;;;;;;;1.82;73.50;101839.19;5023049;28;20500;-72
2024/03/20 09:23:06;;;;;;;4.63;2.77;;;;;;;1.85;73.44;101847.03;5025916;28;20883;-74
2024/03/20 09:25:33;;;;;;;6.07;2.27;;;;;;;1.87;73.20;101847.06;5024728;28;20482;-74
2024/03/20 09:28:00;;;;;;;4.50;2.30;;;;;;;1.88;73.56;101849.69;5022640;28;20572;-74
2024/03/20 09:30:28;;;;;;;3.13;2.20;;;;;;;1.90;73.53;101841.97;5024975;28;20480;-74
2024/03/20 09:32:54;;;;;;;3.57;2.10;;;;;;;1.91;73.30;101838.59;5020887;28;20449;-74
2024/03/20 09:35:21;;;;;;;3.83;2.13;;;;;;;1.93;73.63;101837.81;5025442;28;20439;-74
2024/03/20 09:37:48;;;;;;;3.90;2.80;;;;;;;1.95;73.48;101840.41;5023423;28;20659;-74
2024/03/20 09:40:22;;;;;;;4.37;2.30;;;;;;;1.96;73.34;101842.19;5024015;28;20497;-74
2024/03/20 09:42:50;;;;;;;4.30;2.40;;;;;;;1.96;73.50;101834.44;5025344;28;20453;-73
2024/03/20 09:45:19;;;;;;;2.70;2.07;;;;;;;1.97;73.22;101838.78;5024512;28;20454;-88
2024/03/20 09:47:49;;;;;;;4.47;2.43;;;;;;;1.99;73.62;101831.97;5024207;28;20499;-88
2024/03/20 09:50:16;;;;;;;4.20;2.43;;;;;;;2.01;73.43;101826.81;5022754;28;20451;-88
2024/03/20 09:52:43;;;;;;;4.60;2.90;;;;;;;2.02;73.77;101834.63;5026525;28;20492;-84
2024/03/20 09:55:14;;;;;;;5.67;3.17;;;;;;;2.05;73.97;101831.25;5026993;28;20656;-74
2024/03/20 09:57:43;;;;;;;4.13;2.87;;;;;;;2.05;74.13;101832.13;5021196;28;20829;-73
2024/03/20 10:00:14;;;;;;;4.57;3.03;;;;;;;2.08;74.15;101826.19;5024456;28;20811;-74
2024/03/20 10:02:42;;;;;;;4.60;3.13;;;;;;;2.10;74.27;101834.81;5023251;28;20450;-73
2024/03/20 10:05:12;;;;;;;4.80;3.37;;;;;;;2.12;74.60;101830.59;5023107;28;20454;-74
2024/03/20 10:07:40;;;;;;;5.50;3.23;;;;;;;2.14;74.22;101827.22;5024858;28;20958;-73
2024/03/20 10:10:08;;;;;;;5.10;3.13;;;;;;;2.17;74.24;101838.47;5022991;28;20445;-77
2024/03/20 10:12:36;;;;;;;6.13;3.37;;;;;;;2.19;74.38;101834.22;5022599;28;20487;-80
2024/03/20 10:15:07;;;;;;;6.10;3.90;;;;;;;2.20;73.93;101829.09;5024877;28;20452;-74
2024/03/20 10:17:35;;;;;;;5.27;2.97;;;;;;;2.22;74.03;101830.03;5023559;28;20800;-72
2024/03/20 10:20:02;;;;;;;4.93;3.33;;;;;;;2.23;74.13;101842.09;5021795;28;20448;-74
2024/03/20 10:22:33;;;;;;;5.83;2.63;;;;;;;2.24;74.04;101830.06;5024205;28;20539;-74
2024/03/20 10:24:59;;;;;;;4.80;3.77;;;;;;;2.26;74.07;101826.69;5023923;28;20442;-74
2024/03/20 10:27:27;;;;;;;5.50;2.80;;;;;;;2.27;74.29;101824.97;5021726;28;21009;-74
2024/03/20 10:29:56;;;;;;;3.40;2.43;;;;;;;2.29;74.09;101829.38;5023670;28;20509;-74
2024/03/20 10:32:23;;;;;;;3.07;2.23;;;;;;;2.31;74.13;101829.41;5023837;28;20462;-73
2024/03/20 10:34:53;;;;;;;3.87;2.20;;;;;;;2.30;74.19;101823.38;5021593;28;20803;-73
2024/03/20 10:37:21;;;;;;;2.87;2.10;;;;;;;2.32;73.93;101824.28;5023025;28;20453;-74
2024/03/20 10:39:50;;;;;;;3.77;2.53;;;;;;;2.35;74.04;101826.06;5024284;28;20449;-73
2024/03/20 10:42:17;;;;;;;3.23;2.30;;;;;;;2.34;74.15;101822.63;5021704;28;20491;-73
2024/03/20 10:44:43;;;;;;;3.03;2.10;;;;;;;2.36;73.99;101826.13;5022677;28;20484;-74
2024/03/20 10:47:12;;;;;;;2.90;1.93;;;;;;;2.37;74.09;101825.28;5024004;28;20454;-74
2024/03/20 10:49:37;;;;;;;2.40;1.87;;;;;;;2.38;74.28;101816.69;5021573;28;21059;-74
2024/03/20 10:52:05;;;;;;;2.43;1.60;;;;;;;2.40;73.89;101819.34;5022895;28;20440;-73
2024/03/20 10:54:31;;;;;;;3.20;2.00;;;;;;;2.43;74.17;101814.25;5024049;28;20205;-69
2024/03/20 10:57:00;;;;;;;2.33;1.70;;;;;;;2.44;74.06;101815.13;5021250;28;20447;-69
2024/03/20 10:59:27;;;;;;;3.03;1.70;;;;;;;2.45;73.79;101812.59;5022786;28;20209;-69
2024/03/20 11:01:59;;;;;;;2.63;2.03;;;;;;;2.45;74.19;101810.00;5023788;28;20453;-70
2024/03/20 11:04:34;;;;;;;3.23;2.30;;;;;;;2.47;74.05;101815.22;5020339;28;20451;-71
2024/03/20 11:07:01;;;;;;;4.57;2.03;;;;;;;2.47;74.00;101812.63;5024004;28;20446;-70
2024/03/20 11:09:30;;;;;;;2.93;2.43;;;;;;;2.47;74.02;101810.03;5021439;28;20984;-71
2024/03/20 11:11:57;;;;;;;2.83;2.20;;;;;;;2.48;74.48;101810.09;5022653;28;20908;-70
2024/03/20 11:14:28;;;;;;;3.63;2.30;;;;;;;2.50;74.27;101805.84;5024012;28;20478;-70
2024/03/20 11:17:00;;;;;;;2.87;1.90;;;;;;;2.52;73.86;101803.28;5022282;28;20462;-69
2024/03/20 11:19:27;;;;;;;3.43;2.50;;;;;;;2.54;74.11;101796.47;5021141;28;20459;-69
2024/03/20 11:21:55;;;;;;;4.80;3.60;;;;;;;2.55;74.28;101795.63;5020632;28;21004;-70
2024/03/20 11:24:22;;;;;;;5.33;3.00;;;;;;;2.56;74.02;101794.81;5022560;28;20541;-70
2024/03/20 11:26:49;;;;;;;4.00;2.47;;;;;;;2.55;74.19;101793.03;5023796;28;20963;-70
2024/03/20 11:29:15;;;;;;;6.00;3.50;;;;;;;2.55;74.25;101793.03;5020985;28;20491;-71